Kelly, Kansas
Current Conditions -  °F | °C
As of 8:15 PM on Saturday 22 Nov 2014 (Local Time) from KFNB Reporting Station
Overcast Overcast  
Wind Chill: 13°   Ceiling: 1300
Heat Index: 13°   Visibility: 10mi
Dew Point: 11°   Wind: 14mph
Humidity: 89%   Direction: 170°S
Pressure: 29.66"   Gusts: NA
Location:  39.8497°N, 96.0411°W
Report Text: KFNB 230215Z AUTO 17012KT 10SM OVC013 13/11 A2966 RMK AO2 T01280111
Loading
Personal Weather Stations






























Interactive Weather Map New forecast layout! Learn more

10-Day Weather Forecast

Advertisements
Track Severe Weather on mobile